Terminal Aerodrome Forecast
Issued by NWS

Home | Current Version | Previous Version | Graphics & Text | Print | Product List | Glossary On
Versions: 1 2 3 4 5 6 7 8 9 10 11 12 13 14 15 16 17 18
000
FTUS43 KBIS 232300
TAFMOT
TAF
KMOT 232338Z 2400/2424 03006KT P6SM SCT020
     FM240700 09007KT P6SM BKN004 OVC060
     FM241700 10009KT 4SM -RA BR BKN008 OVC012=

USA.gov is the U.S. government's official web portal to all federal, state and local government web resources and services.